Time;durP1;ratioP1;P1;durP2;ratioP2;P2;SDS_P1;SDS_P2;PMS_P1;PMS_P2;Temp;Humidity;BMP_temperature;BMP_pressure;BME280_temperature;BME280_humidity;BME280_pressure;Samples;Min_cycle;Max_cycle;Signal;HPM_P1;HPM_P2
2023/01/10 00:00:49;;;;;;;14.40;7.75;;;;;;;;;;5053283;28;20193;-67
2023/01/10 00:03:16;;;;;;;17.33;9.65;;;;;;;;;;5053429;28;20208;-66
2023/01/10 00:05:45;;;;;;;14.00;7.70;;;;;;;;;;5053058;28;20190;-66
2023/01/10 00:08:15;;;;;;;16.40;8.73;;;;;;;;;;5053333;28;20216;-66
2023/01/10 00:10:42;;;;;;;16.92;7.50;;;;;;;;;;5053285;28;20256;-66
2023/01/10 00:13:22;;;;;;;20.58;8.82;;;;;;;;;;5053459;28;20544;-67
2023/01/10 00:15:50;;;;;;;17.65;9.85;;;;;;;;;;5053241;28;20190;-66
2023/01/10 00:18:17;;;;;;;19.95;9.18;;;;;;;;;;5053206;28;20245;-66
2023/01/10 00:20:45;;;;;;;17.33;8.93;;;;;;;;;;5053127;28;20198;-67
2023/01/10 00:23:13;;;;;;;21.65;9.35;;;;;;;;;;5053203;28;20204;-66
2023/01/10 00:25:41;;;;;;;17.10;8.73;;;;;;;;;;5053210;28;20201;-66
2023/01/10 00:28:18;;;;;;;17.10;9.60;;;;;;;;;;5052925;28;20229;-66
2023/01/10 00:30:48;;;;;;;16.35;7.75;;;;;;;;;;5053286;28;20299;-66
2023/01/10 00:33:19;;;;;;;20.45;8.40;;;;;;;;;;5053598;28;20195;-66
2023/01/10 00:35:48;;;;;;;19.83;9.23;;;;;;;;;;5053185;28;20187;-66
2023/01/10 00:38:15;;;;;;;17.02;7.45;;;;;;;;;;5053067;28;20253;-66
2023/01/10 00:40:43;;;;;;;13.43;7.43;;;;;;;;;;5052623;28;20681;-66
2023/01/10 00:45:56;;;;;;;17.30;8.45;;;;;;;;;;5054943;28;20264;-66
2023/01/10 00:48:23;;;;;;;16.30;8.13;;;;;;;;;;5056997;28;20560;-66
2023/01/10 00:50:52;;;;;;;22.70;7.75;;;;;;;;;;5056872;28;20198;-66
2023/01/10 00:53:19;;;;;;;24.80;9.20;;;;;;;;;;5056891;28;20537;-66
2023/01/10 00:55:46;;;;;;;16.13;7.90;;;;;;;;;;5057289;28;20283;-66
2023/01/10 00:58:14;;;;;;;21.42;8.32;;;;;;;;;;5056449;28;20217;-66
2023/01/10 01:00:42;;;;;;;18.42;8.60;;;;;;;;;;5056731;28;20586;-66
2023/01/10 01:03:09;;;;;;;17.65;7.80;;;;;;;;;;5056767;28;20538;-66
2023/01/10 01:05:40;;;;;;;16.70;9.32;;;;;;;;;;5056245;28;20238;-66
2023/01/10 01:08:09;;;;;;;19.25;8.80;;;;;;;;;;5056415;28;20194;-66
2023/01/10 01:10:36;;;;;;;18.88;8.93;;;;;;;;;;5056780;28;20265;-66
2023/01/10 01:13:07;;;;;;;18.42;9.23;;;;;;;;;;5056483;28;20308;-66
2023/01/10 01:15:35;;;;;;;17.45;8.52;;;;;;;;;;5056427;28;20205;-66
2023/01/10 01:18:02;;;;;;;21.02;8.98;;;;;;;;;;5056426;28;20227;-66
2023/01/10 01:20:29;;;;;;;21.48;8.38;;;;;;;;;;5056398;28;20205;-66
2023/01/10 01:22:57;;;;;;;17.13;8.52;;;;;;;;;;5056380;28;20197;-66
2023/01/10 01:25:25;;;;;;;23.00;8.02;;;;;;;;;;5055870;28;20201;-66
2023/01/10 01:27:53;;;;;;;18.23;8.82;;;;;;;;;;5056643;28;20201;-66
2023/01/10 01:30:20;;;;;;;22.88;8.00;;;;;;;;;;5055917;28;20202;-66
2023/01/10 01:32:47;;;;;;;16.35;8.35;;;;;;;;;;5056125;28;20224;-66
2023/01/10 01:35:15;;;;;;;15.75;5.85;;;;;;;;;;5056188;28;20201;-66
2023/01/10 01:37:42;;;;;;;17.33;7.65;;;;;;;;;;5055830;28;20220;-66
2023/01/10 01:40:13;;;;;;;17.05;7.30;;;;;;;;;;5056183;28;20199;-66
2023/01/10 01:42:42;;;;;;;22.40;7.63;;;;;;;;;;5055971;28;20193;-66
2023/01/10 01:45:27;;;;;;;17.23;6.78;;;;;;;;;;5055986;28;20288;-66
2023/01/10 01:47:56;;;;;;;16.48;6.72;;;;;;;;;;5055671;28;20193;-65
2023/01/10 01:50:26;;;;;;;7.57;5.45;;;;;;;;;;5055825;28;20194;-66
2023/01/10 01:52:55;;;;;;;13.80;7.72;;;;;;;;;;5055417;28;20197;-66
2023/01/10 01:55:23;;;;;;;12.40;6.05;;;;;;;;;;5055829;28;20206;-66
2023/01/10 01:57:53;;;;;;;15.52;5.40;;;;;;;;;;5054375;28;20662;-66
2023/01/10 02:00:20;;;;;;;14.52;6.65;;;;;;;;;;5055635;28;20198;-66
2023/01/10 02:02:50;;;;;;;15.18;7.18;;;;;;;;;;5055209;28;20202;-66
2023/01/10 02:05:18;;;;;;;17.42;7.38;;;;;;;;;;5055272;28;20206;-65
2023/01/10 02:07:46;;;;;;;21.77;6.65;;;;;;;;;;5055419;28;20197;-66
2023/01/10 02:10:15;;;;;;;19.27;6.47;;;;;;;;;;5055180;28;20229;-66
2023/01/10 02:12:43;;;;;;;18.55;6.95;;;;;;;;;;5055288;28;20300;-65
2023/01/10 02:15:13;;;;;;;21.25;7.22;;;;;;;;;;5055420;28;20221;-65
2023/01/10 02:17:40;;;;;;;17.27;7.28;;;;;;;;;;5055431;28;20224;-65
2023/01/10 02:20:08;;;;;;;15.88;5.80;;;;;;;;;;5055245;28;20224;-65
2023/01/10 02:22:51;;;;;;;16.20;6.80;;;;;;;;;;5054858;28;20201;-65
2023/01/10 02:25:25;;;;;;;12.57;5.43;;;;;;;;;;5055344;28;20186;-65
2023/01/10 02:28:05;;;;;;;10.88;6.25;;;;;;;;;;5055377;28;20190;-65
2023/01/10 02:30:52;;;;;;;13.38;6.50;;;;;;;;;;5055317;28;20305;-65
2023/01/10 02:33:24;;;;;;;16.60;6.32;;;;;;;;;;5055107;28;20473;-65
2023/01/10 02:36:01;;;;;;;9.48;5.00;;;;;;;;;;5055457;28;20539;-65
2023/01/10 02:38:33;;;;;;;9.93;5.32;;;;;;;;;;5054921;28;20208;-65
2023/01/10 02:41:06;;;;;;;15.40;5.95;;;;;;;;;;5055012;28;20288;-65
2023/01/10 02:43:35;;;;;;;18.02;6.30;;;;;;;;;;5054843;28;20187;-65
2023/01/10 02:46:04;;;;;;;19.05;6.20;;;;;;;;;;5054546;28;20242;-65
2023/01/10 02:48:33;;;;;;;13.95;7.30;;;;;;;;;;5054995;28;20205;-65
2023/01/10 02:51:03;;;;;;;18.13;6.00;;;;;;;;;;5054692;28;20194;-65
2023/01/10 02:53:31;;;;;;;13.63;6.63;;;;;;;;;;5054749;28;20273;-65
2023/01/10 02:56:20;;;;;;;18.63;7.28;;;;;;;;;;5054320;28;20212;-65
2023/01/10 02:58:54;;;;;;;15.60;8.20;;;;;;;;;;5054478;28;20222;-65
2023/01/10 03:01:25;;;;;;;18.23;6.45;;;;;;;;;;5054895;28;20186;-65
2023/01/10 03:03:58;;;;;;;14.55;6.10;;;;;;;;;;5054535;28;20190;-65
2023/01/10 03:06:30;;;;;;;11.43;6.50;;;;;;;;;;5054727;28;20197;-65
2023/01/10 03:09:03;;;;;;;12.23;6.43;;;;;;;;;;5053949;28;20196;-65
2023/01/10 03:11:43;;;;;;;21.15;6.97;;;;;;;;;;5054060;28;20579;-65
2023/01/10 03:14:13;;;;;;;17.55;8.00;;;;;;;;;;5054615;28;20198;-65
2023/01/10 03:16:41;;;;;;;12.15;6.30;;;;;;;;;;5054846;28;20220;-65
2023/01/10 03:19:11;;;;;;;12.40;6.25;;;;;;;;;;5054026;28;20221;-65
2023/01/10 03:21:39;;;;;;;13.10;6.72;;;;;;;;;;5054933;28;20193;-65
2023/01/10 03:24:09;;;;;;;12.85;5.57;;;;;;;;;;5054094;28;20293;-65
2023/01/10 03:26:42;;;;;;;15.13;8.20;;;;;;;;;;5054001;28;20218;-65
2023/01/10 03:29:12;;;;;;;16.15;5.85;;;;;;;;;;5054058;28;20201;-65
2023/01/10 03:31:43;;;;;;;14.02;6.47;;;;;;;;;;5053660;28;20286;-65
2023/01/10 03:34:11;;;;;;;16.00;6.38;;;;;;;;;;5053608;28;20192;-65
2023/01/10 03:36:41;;;;;;;18.55;5.50;;;;;;;;;;5054191;28;20220;-65
2023/01/10 03:39:16;;;;;;;19.48;5.72;;;;;;;;;;5053769;28;20232;-65
2023/01/10 03:41:48;;;;;;;10.82;5.82;;;;;;;;;;5053822;28;20189;-65
2023/01/10 03:47:05;;;;;;;17.80;6.65;;;;;;;;;;5053853;28;20544;-65
2023/01/10 03:49:36;;;;;;;11.40;4.82;;;;;;;;;;5053627;28;20233;-65
2023/01/10 03:52:04;;;;;;;11.40;5.05;;;;;;;;;;5054089;28;20627;-65
2023/01/10 03:54:31;;;;;;;16.13;5.35;;;;;;;;;;5053200;28;20198;-65
2023/01/10 03:56:58;;;;;;;10.38;4.68;;;;;;;;;;5053947;28;20194;-65
2023/01/10 03:59:27;;;;;;;12.98;5.07;;;;;;;;;;5053063;28;20224;-65
2023/01/10 04:01:54;;;;;;;15.88;4.85;;;;;;;;;;5053481;28;20201;-65
2023/01/10 04:04:21;;;;;;;11.98;4.75;;;;;;;;;;5053469;28;20208;-65
2023/01/10 04:06:50;;;;;;;17.85;4.88;;;;;;;;;;5053150;28;20210;-65
2023/01/10 04:09:17;;;;;;;13.65;4.57;;;;;;;;;;5052929;28;20202;-65
2023/01/10 04:11:44;;;;;;;11.25;4.57;;;;;;;;;;5053127;28;20318;-65
2023/01/10 04:14:12;;;;;;;13.13;4.72;;;;;;;;;;5053454;28;20259;-65
2023/01/10 04:16:39;;;;;;;17.60;5.18;;;;;;;;;;5053358;28;20191;-65
2023/01/10 04:19:06;;;;;;;11.88;5.25;;;;;;;;;;5053218;28;20236;-65
2023/01/10 04:21:33;;;;;;;11.70;5.05;;;;;;;;;;5058945;28;20204;-65
2023/01/10 04:24:03;;;;;;;13.60;4.80;;;;;;;;;;5060149;28;20228;-65
2023/01/10 04:26:30;;;;;;;6.82;3.70;;;;;;;;;;5059572;28;20210;-64
2023/01/10 04:28:57;;;;;;;10.70;4.65;;;;;;;;;;5059818;28;20278;-65
2023/01/10 04:31:25;;;;;;;16.30;5.47;;;;;;;;;;5059901;28;20293;-65
2023/01/10 04:33:53;;;;;;;14.75;4.68;;;;;;;;;;5059468;28;20210;-65
2023/01/10 04:36:20;;;;;;;13.73;4.03;;;;;;;;;;5059872;28;20222;-64
2023/01/10 04:38:47;;;;;;;11.77;4.13;;;;;;;;;;5059604;28;20205;-64
2023/01/10 04:41:15;;;;;;;17.42;4.60;;;;;;;;;;5060204;28;20194;-64
2023/01/10 04:43:43;;;;;;;13.27;4.72;;;;;;;;;;5059711;28;20202;-64
2023/01/10 04:46:10;;;;;;;12.73;4.53;;;;;;;;;;5060040;28;20237;-64
2023/01/10 04:48:37;;;;;;;14.80;5.07;;;;;;;;;;5059246;28;20208;-64
2023/01/10 04:51:04;;;;;;;20.52;4.72;;;;;;;;;;5059579;28;20237;-64
2023/01/10 04:53:32;;;;;;;12.48;4.85;;;;;;;;;;5059830;28;20201;-64
2023/01/10 04:56:03;;;;;;;8.88;5.32;;;;;;;;;;5059382;28;20201;-64
2023/01/10 04:58:32;;;;;;;12.32;4.40;;;;;;;;;;5053191;28;20286;-64
2023/01/10 05:01:00;;;;;;;11.90;4.75;;;;;;;;;;5038994;28;20215;-64
2023/01/10 05:03:27;;;;;;;15.13;5.82;;;;;;;;;;5038944;28;20195;-64
2023/01/10 05:05:54;;;;;;;9.25;4.57;;;;;;;;;;5038960;28;20664;-64
2023/01/10 05:08:21;;;;;;;11.90;5.90;;;;;;;;;;5039083;28;20258;-64
2023/01/10 05:10:48;;;;;;;16.67;6.20;;;;;;;;;;5039043;28;20234;-64
2023/01/10 05:13:15;;;;;;;12.43;5.55;;;;;;;;;;5039111;28;20198;-65
2023/01/10 05:15:44;;;;;;;15.55;6.40;;;;;;;;;;5039441;28;20203;-64
2023/01/10 05:18:11;;;;;;;21.40;5.82;;;;;;;;;;5039062;28;20209;-64
2023/01/10 05:20:38;;;;;;;8.75;5.85;;;;;;;;;;5039219;28;20218;-64
2023/01/10 05:23:06;;;;;;;15.43;5.60;;;;;;;;;;5039078;28;20199;-65
2023/01/10 05:25:33;;;;;;;19.13;7.10;;;;;;;;;;5039298;28;20571;-64
2023/01/10 05:28:00;;;;;;;17.67;6.85;;;;;;;;;;5039133;28;20207;-65
2023/01/10 05:30:27;;;;;;;12.88;5.97;;;;;;;;;;5039285;28;20205;-65
2023/01/10 05:32:56;;;;;;;15.77;6.28;;;;;;;;;;5035231;28;20201;-65
2023/01/10 05:35:23;;;;;;;12.70;7.28;;;;;;;;;;5035797;28;20204;-64
2023/01/10 05:37:50;;;;;;;11.48;6.20;;;;;;;;;;5035902;28;20668;-65
2023/01/10 05:40:17;;;;;;;13.93;6.13;;;;;;;;;;5036086;28;20219;-66
2023/01/10 05:42:45;;;;;;;17.38;7.13;;;;;;;;;;5035987;28;20289;-65
2023/01/10 05:45:12;;;;;;;15.52;6.45;;;;;;;;;;5035745;28;20561;-65
2023/01/10 05:47:39;;;;;;;12.80;6.00;;;;;;;;;;5035992;28;20205;-65
2023/01/10 05:50:08;;;;;;;19.85;7.15;;;;;;;;;;5035721;28;20202;-65
2023/01/10 05:52:35;;;;;;;11.18;5.20;;;;;;;;;;5035543;28;20679;-65
2023/01/10 05:55:03;;;;;;;24.48;7.00;;;;;;;;;;5035730;28;20198;-66
2023/01/10 05:57:30;;;;;;;12.68;6.65;;;;;;;;;;5035539;28;20234;-65
2023/01/10 05:59:57;;;;;;;13.00;6.30;;;;;;;;;;5035112;28;20215;-65
2023/01/10 06:02:25;;;;;;;17.65;5.85;;;;;;;;;;5035153;28;20652;-65
2023/01/10 06:04:54;;;;;;;11.13;5.47;;;;;;;;;;5033507;28;20209;-65
2023/01/10 06:07:22;;;;;;;11.40;6.38;;;;;;;;;;5034493;28;20580;-65
2023/01/10 06:09:50;;;;;;;16.88;5.40;;;;;;;;;;5034862;28;20244;-63
2023/01/10 06:12:18;;;;;;;13.68;5.43;;;;;;;;;;5035285;28;20238;-65
2023/01/10 06:14:45;;;;;;;12.38;5.75;;;;;;;;;;5035463;28;20289;-64
2023/01/10 06:17:13;;;;;;;8.85;5.22;;;;;;;;;;5035561;28;20200;-64
2023/01/10 06:19:40;;;;;;;11.48;5.75;;;;;;;;;;5035034;28;20222;-64
2023/01/10 06:22:07;;;;;;;10.68;6.18;;;;;;;;;;5035126;28;20202;-64
2023/01/10 06:24:36;;;;;;;21.80;6.70;;;;;;;;;;5035373;28;20200;-64
2023/01/10 06:27:03;;;;;;;11.88;5.40;;;;;;;;;;5035746;28;20600;-64
2023/01/10 06:29:30;;;;;;;14.90;5.40;;;;;;;;;;5035150;28;20195;-64
2023/01/10 06:31:57;;;;;;;19.25;5.93;;;;;;;;;;5034953;28;20199;-64
2023/01/10 06:34:25;;;;;;;14.77;6.30;;;;;;;;;;5035362;28;20286;-65
2023/01/10 06:36:52;;;;;;;13.30;5.50;;;;;;;;;;5035374;28;20201;-64
2023/01/10 06:39:19;;;;;;;14.55;5.38;;;;;;;;;;5034563;28;20199;-64
2023/01/10 06:41:48;;;;;;;16.02;5.97;;;;;;;;;;5034645;28;20199;-64
2023/01/10 06:44:15;;;;;;;14.48;5.38;;;;;;;;;;5034629;28;20202;-64
2023/01/10 06:46:42;;;;;;;14.55;4.95;;;;;;;;;;5034876;28;20206;-64
2023/01/10 06:49:09;;;;;;;9.52;4.40;;;;;;;;;;5034872;28;20205;-64
2023/01/10 06:51:36;;;;;;;11.70;4.57;;;;;;;;;;5034691;28;20204;-64
2023/01/10 06:54:04;;;;;;;11.45;5.43;;;;;;;;;;5034790;28;20195;-64
2023/01/10 06:56:31;;;;;;;19.27;6.10;;;;;;;;;;5034766;28;20279;-64
2023/01/10 06:58:59;;;;;;;11.70;5.30;;;;;;;;;;5035190;28;20199;-64
2023/01/10 07:01:26;;;;;;;16.05;5.60;;;;;;;;;;5034240;28;20219;-64
2023/01/10 07:03:54;;;;;;;16.63;6.03;;;;;;;;;;5034667;28;20195;-64
2023/01/10 07:06:21;;;;;;;11.18;5.10;;;;;;;;;;5034764;28;20224;-64
2023/01/10 07:08:48;;;;;;;16.73;5.97;;;;;;;;;;5034588;28;20201;-64
2023/01/10 07:11:16;;;;;;;19.52;6.13;;;;;;;;;;5034693;28;20309;-64
2023/01/10 07:13:44;;;;;;;26.70;5.43;;;;;;;;;;5034055;28;20676;-65
2023/01/10 07:16:13;;;;;;;12.43;5.00;;;;;;;;;;5034426;28;20201;-64
2023/01/10 07:18:41;;;;;;;20.90;5.30;;;;;;;;;;5034306;28;20195;-64
2023/01/10 07:21:09;;;;;;;10.55;5.60;;;;;;;;;;5034476;28;20700;-64
2023/01/10 07:23:37;;;;;;;18.52;5.70;;;;;;;;;;5034233;28;20202;-65
2023/01/10 07:26:05;;;;;;;15.15;4.93;;;;;;;;;;5033807;28;20660;-64
2023/01/10 07:28:33;;;;;;;27.48;6.57;;;;;;;;;;5033807;28;20202;-64
2023/01/10 07:31:00;;;;;;;22.85;8.70;;;;;;;;;;5033805;28;20209;-64
2023/01/10 07:33:30;;;;;;;17.70;5.40;;;;;;;;;;5034081;28;20199;-64
2023/01/10 07:35:57;;;;;;;26.40;6.53;;;;;;;;;;5033999;28;20205;-64
2023/01/10 07:38:24;;;;;;;11.90;5.97;;;;;;;;;;5033730;28;20198;-64
2023/01/10 07:40:51;;;;;;;22.48;6.28;;;;;;;;;;5034158;28;20222;-64
2023/01/10 07:43:18;;;;;;;15.60;5.80;;;;;;;;;;5033688;28;20686;-64
2023/01/10 07:45:46;;;;;;;17.00;6.47;;;;;;;;;;5034194;28;20203;-64
2023/01/10 07:48:13;;;;;;;20.67;6.50;;;;;;;;;;5034228;28;20199;-64
2023/01/10 07:50:42;;;;;;;16.05;6.00;;;;;;;;;;5033694;28;20311;-64
2023/01/10 07:53:09;;;;;;;24.95;7.68;;;;;;;;;;5033418;28;20285;-64
2023/01/10 07:55:38;;;;;;;16.70;6.65;;;;;;;;;;5032944;28;20269;-64
2023/01/10 07:58:06;;;;;;;18.45;6.35;;;;;;;;;;5033729;28;20202;-64
2023/01/10 08:00:33;;;;;;;19.77;6.70;;;;;;;;;;5033141;28;20570;-65
2023/01/10 08:03:01;;;;;;;26.02;6.32;;;;;;;;;;5033620;28;20195;-64
2023/01/10 08:05:28;;;;;;;22.80;6.40;;;;;;;;;;5033575;28;20208;-64
2023/01/10 08:07:58;;;;;;;17.70;7.10;;;;;;;;;;5033954;28;20201;-64
2023/01/10 08:10:26;;;;;;;17.92;6.45;;;;;;;;;;5033249;28;20237;-64
2023/01/10 08:12:53;;;;;;;11.45;5.32;;;;;;;;;;5033476;28;20244;-64
2023/01/10 08:15:20;;;;;;;14.77;6.13;;;;;;;;;;5033551;28;20664;-64
2023/01/10 08:17:47;;;;;;;14.13;7.13;;;;;;;;;;5033499;28;20214;-64
2023/01/10 08:20:15;;;;;;;18.40;6.78;;;;;;;;;;5033356;28;20218;-64
2023/01/10 08:22:42;;;;;;;14.52;6.60;;;;;;;;;;5033355;28;20194;-64
2023/01/10 08:25:11;;;;;;;21.48;6.72;;;;;;;;;;5033390;28;20615;-64
2023/01/10 08:27:38;;;;;;;18.65;6.70;;;;;;;;;;5032969;28;20199;-64
2023/01/10 08:30:06;;;;;;;18.70;7.85;;;;;;;;;;5033395;28;20194;-64
2023/01/10 08:32:33;;;;;;;16.17;6.13;;;;;;;;;;5033495;28;20204;-64
2023/01/10 08:35:00;;;;;;;16.98;7.28;;;;;;;;;;5033381;28;20241;-64
2023/01/10 08:37:28;;;;;;;21.98;7.18;;;;;;;;;;5033248;28;20198;-64
2023/01/10 08:39:55;;;;;;;24.55;6.53;;;;;;;;;;5032946;28;20198;-64
2023/01/10 08:42:24;;;;;;;22.98;6.82;;;;;;;;;;5033029;28;20202;-64
2023/01/10 08:44:51;;;;;;;18.83;6.60;;;;;;;;;;5033363;28;20204;-64
2023/01/10 08:47:18;;;;;;;19.13;7.45;;;;;;;;;;5033058;28;20204;-64
2023/01/10 08:49:45;;;;;;;17.10;8.40;;;;;;;;;;5033135;28;20200;-64
2023/01/10 08:52:13;;;;;;;15.13;6.95;;;;;;;;;;5033115;28;20202;-64
2023/01/10 08:54:40;;;;;;;21.70;6.93;;;;;;;;;;5033332;28;20206;-64
2023/01/10 08:57:07;;;;;;;12.82;6.90;;;;;;;;;;5033028;28;20201;-66
2023/01/10 08:59:36;;;;;;;16.17;7.25;;;;;;;;;;5033431;28;20202;-64
2023/01/10 09:02:03;;;;;;;25.05;7.40;;;;;;;;;;5032757;28;20318;-64
2023/01/10 09:04:31;;;;;;;18.67;6.50;;;;;;;;;;5032256;28;20281;-65
2023/01/10 09:06:58;;;;;;;20.55;8.32;;;;;;;;;;5034702;28;20560;-65
2023/01/10 09:09:25;;;;;;;18.50;6.68;;;;;;;;;;5037032;28;20539;-64
2023/01/10 09:11:52;;;;;;;20.58;6.63;;;;;;;;;;5036513;28;20331;-64
2023/01/10 09:14:20;;;;;;;21.58;6.50;;;;;;;;;;5036555;28;20201;-65
2023/01/10 09:16:50;;;;;;;18.35;6.57;;;;;;;;;;5036705;28;20199;-64
2023/01/10 09:19:17;;;;;;;15.18;6.30;;;;;;;;;;5036622;28;20187;-64
2023/01/10 09:21:44;;;;;;;22.15;8.20;;;;;;;;;;5036889;28;20248;-65
2023/01/10 09:24:12;;;;;;;23.25;7.47;;;;;;;;;;5036920;28;20205;-65
2023/01/10 09:26:40;;;;;;;16.50;6.03;;;;;;;;;;5036718;28;20237;-64
2023/01/10 09:29:07;;;;;;;19.65;6.85;;;;;;;;;;5036740;28;20595;-65
2023/01/10 09:31:34;;;;;;;16.55;5.47;;;;;;;;;;5036248;28;20564;-64
2023/01/10 09:34:03;;;;;;;15.65;5.82;;;;;;;;;;5036130;28;20203;-64
2023/01/10 09:36:30;;;;;;;22.58;8.20;;;;;;;;;;5035919;28;20198;-64
2023/01/10 09:38:57;;;;;;;15.52;6.85;;;;;;;;;;5036067;28;20565;-65
2023/01/10 09:41:35;;;;;;;17.42;6.28;;;;;;;;;;5036469;28;20223;-65
2023/01/10 09:44:04;;;;;;;15.77;5.30;;;;;;;;;;5036140;28;20187;-64
2023/01/10 09:46:38;;;;;;;17.98;5.70;;;;;;;;;;5035693;28;20201;-64
2023/01/10 09:49:12;;;;;;;18.90;6.78;;;;;;;;;;5035574;28;20199;-65
2023/01/10 09:51:41;;;;;;;22.70;8.20;;;;;;;;;;5036573;28;20198;-64
2023/01/10 09:54:12;;;;;;;27.35;6.57;;;;;;;;;;5036064;28;20202;-64
2023/01/10 09:56:40;;;;;;;20.40;7.53;;;;;;;;;;5036710;28;20207;-65
2023/01/10 09:59:07;;;;;;;23.10;7.00;;;;;;;;;;5035799;28;20197;-64
2023/01/10 10:01:35;;;;;;;17.40;7.38;;;;;;;;;;5035403;28;20229;-64
2023/01/10 10:04:06;;;;;;;18.77;7.85;;;;;;;;;;5035328;28;20675;-64
2023/01/10 10:06:35;;;;;;;19.95;6.70;;;;;;;;;;5035979;28;20352;-65
2023/01/10 10:09:02;;;;;;;23.27;8.45;;;;;;;;;;5035551;28;20302;-64
2023/01/10 10:11:37;;;;;;;16.08;6.80;;;;;;;;;;5035766;28;20230;-64
2023/01/10 10:14:07;;;;;;;13.93;6.18;;;;;;;;;;5035121;28;20190;-64
2023/01/10 10:16:39;;;;;;;28.13;8.30;;;;;;;;;;5035846;28;20249;-64
2023/01/10 10:19:10;;;;;;;29.67;9.70;;;;;;;;;;5034855;28;20191;-64
2023/01/10 10:21:42;;;;;;;20.40;7.93;;;;;;;;;;5035574;28;20268;-64
2023/01/10 10:24:18;;;;;;;21.45;8.95;;;;;;;;;;5034867;28;20179;-65
2023/01/10 10:26:49;;;;;;;21.10;7.88;;;;;;;;;;5034949;28;20180;-64
2023/01/10 10:29:29;;;;;;;21.50;8.15;;;;;;;;;;5034701;28;20183;-65
2023/01/10 10:32:05;;;;;;;22.40;8.80;;;;;;;;;;5034816;28;20184;-64
2023/01/10 10:34:36;;;;;;;27.23;10.05;;;;;;;;;;5035174;28;20195;-64
2023/01/10 10:37:09;;;;;;;24.48;8.15;;;;;;;;;;5035535;28;20184;-65
2023/01/10 10:39:37;;;;;;;21.50;8.80;;;;;;;;;;5034851;28;20230;-65
2023/01/10 10:42:07;;;;;;;23.20;9.18;;;;;;;;;;5034589;28;20317;-64
2023/01/10 10:44:38;;;;;;;22.42;8.77;;;;;;;;;;5034525;28;20205;-65
2023/01/10 10:47:10;;;;;;;18.80;9.55;;;;;;;;;;5034739;28;20261;-64
2023/01/10 10:49:38;;;;;;;20.42;11.50;;;;;;;;;;5034614;28;20194;-64
2023/01/10 10:52:12;;;;;;;23.40;9.90;;;;;;;;;;5034374;28;20668;-64
2023/01/10 10:54:40;;;;;;;25.58;9.20;;;;;;;;;;5034331;28;20685;-64
2023/01/10 10:57:07;;;;;;;25.10;11.73;;;;;;;;;;5033935;28;20194;-64
2023/01/10 10:59:35;;;;;;;38.43;11.97;;;;;;;;;;5034295;28;20195;-65
2023/01/10 11:02:02;;;;;;;21.13;11.13;;;;;;;;;;5034742;28;20486;-64
2023/01/10 11:04:31;;;;;;;29.38;9.93;;;;;;;;;;5034592;28;20230;-65
2023/01/10 11:06:58;;;;;;;25.20;10.57;;;;;;;;;;5034209;28;20209;-65
2023/01/10 11:09:31;;;;;;;26.30;10.40;;;;;;;;;;5034032;28;20192;-65
2023/01/10 11:11:58;;;;;;;29.13;10.80;;;;;;;;;;5034510;28;20431;-65
2023/01/10 11:14:44;;;;;;;27.63;11.85;;;;;;;;;;5034340;28;20195;-64
2023/01/10 11:17:19;;;;;;;34.65;12.35;;;;;;;;;;5034110;28;20184;-65
2023/01/10 11:19:55;;;;;;;35.30;11.40;;;;;;;;;;5034712;28;20197;-65
2023/01/10 11:22:22;;;;;;;24.65;11.13;;;;;;;;;;5034199;28;20210;-64
2023/01/10 11:24:54;;;;;;;25.25;12.80;;;;;;;;;;5034049;28;20198;-64
2023/01/10 11:27:22;;;;;;;23.30;11.57;;;;;;;;;;5034343;28;20246;-64
2023/01/10 11:29:50;;;;;;;22.80;9.05;;;;;;;;;;5033109;28;20199;-65
2023/01/10 11:32:18;;;;;;;25.90;11.90;;;;;;;;;;5034105;28;20674;-65
2023/01/10 11:34:52;;;;;;;22.27;11.40;;;;;;;;;;5033985;28;20199;-65
2023/01/10 11:37:20;;;;;;;24.30;9.57;;;;;;;;;;5033765;28;20612;-65
2023/01/10 11:39:47;;;;;;;20.98;8.93;;;;;;;;;;5034117;28;20191;-65
2023/01/10 11:42:36;;;;;;;16.55;8.10;;;;;;;;;;5033524;28;20226;-64
2023/01/10 11:45:18;;;;;;;21.85;9.10;;;;;;;;;;5030776;28;20203;-64
2023/01/10 11:47:48;;;;;;;33.13;8.65;;;;;;;;;;5033954;28;20219;-64
2023/01/10 11:50:18;;;;;;;21.98;7.90;;;;;;;;;;5033501;28;20188;-64
2023/01/10 11:52:47;;;;;;;19.60;6.65;;;;;;;;;;5033877;28;20226;-65
2023/01/10 11:55:19;;;;;;;25.33;7.43;;;;;;;;;;5033631;28;20199;-65
2023/01/10 11:57:46;;;;;;;24.20;6.85;;;;;;;;;;5033918;28;20427;-65
2023/01/10 12:00:14;;;;;;;21.75;7.13;;;;;;;;;;5033664;28;20195;-65
2023/01/10 12:02:42;;;;;;;23.05;6.82;;;;;;;;;;5033619;28;20222;-65
2023/01/10 12:05:12;;;;;;;17.20;6.95;;;;;;;;;;5033550;28;20203;-65
2023/01/10 12:07:55;;;;;;;22.88;7.90;;;;;;;;;;5033583;28;20197;-65
2023/01/10 12:10:23;;;;;;;22.60;7.25;;;;;;;;;;5033250;28;20223;-65
2023/01/10 12:12:54;;;;;;;18.83;6.35;;;;;;;;;;5033523;28;20212;-65
2023/01/10 12:15:23;;;;;;;24.10;7.82;;;;;;;;;;5033189;28;20242;-65
2023/01/10 12:17:52;;;;;;;20.70;7.80;;;;;;;;;;5034063;28;20260;-65
2023/01/10 12:20:21;;;;;;;24.75;7.47;;;;;;;;;;5033421;28;20293;-65
2023/01/10 12:22:50;;;;;;;20.67;6.32;;;;;;;;;;5033318;28;20230;-65
2023/01/10 12:25:20;;;;;;;20.17;6.30;;;;;;;;;;5033075;28;20200;-65
2023/01/10 12:27:49;;;;;;;20.10;6.35;;;;;;;;;;5033819;28;20195;-65
2023/01/10 12:30:18;;;;;;;24.50;6.72;;;;;;;;;;5032952;28;20200;-65
2023/01/10 12:32:47;;;;;;;16.85;6.30;;;;;;;;;;5033325;28;20199;-65
2023/01/10 12:35:17;;;;;;;20.75;6.78;;;;;;;;;;5033264;28;20204;-65
2023/01/10 12:37:49;;;;;;;21.05;5.55;;;;;;;;;;5033275;28;20656;-65
2023/01/10 12:40:19;;;;;;;23.80;7.75;;;;;;;;;;5033244;28;20210;-66
2023/01/10 12:45:44;;;;;;;26.83;6.23;;;;;;;;;;5037054;28;20190;-65
2023/01/10 12:48:15;;;;;;;28.05;6.75;;;;;;;;;;5037497;28;20432;-65
2023/01/10 12:50:44;;;;;;;25.92;6.15;;;;;;;;;;5037119;28;20270;-65
2023/01/10 12:53:18;;;;;;;21.63;6.00;;;;;;;;;;5036767;28;20225;-65
2023/01/10 12:55:46;;;;;;;16.00;4.93;;;;;;;;;;5036735;28;20444;-64
2023/01/10 12:58:15;;;;;;;17.58;5.63;;;;;;;;;;5036681;28;20449;-64
2023/01/10 13:00:45;;;;;;;17.20;6.20;;;;;;;;;;5036921;28;20680;-64
2023/01/10 13:03:14;;;;;;;20.27;4.97;;;;;;;;;;5036640;28;20462;-65
2023/01/10 13:05:41;;;;;;;18.08;4.80;;;;;;;;;;5036964;28;20438;-64
2023/01/10 13:08:11;;;;;;;13.95;4.88;;;;;;;;;;5036829;28;20228;-65
2023/01/10 13:10:42;;;;;;;17.48;4.70;;;;;;;;;;5036584;28;20234;-65
2023/01/10 13:13:13;;;;;;;13.55;4.40;;;;;;;;;;5036866;28;20184;-65
2023/01/10 13:15:48;;;;;;;19.13;5.53;;;;;;;;;;5036745;28;20279;-65
2023/01/10 13:18:17;;;;;;;19.27;4.47;;;;;;;;;;5037004;28;20426;-65
2023/01/10 13:20:45;;;;;;;18.63;4.20;;;;;;;;;;5036543;28;20286;-65
2023/01/10 13:23:29;;;;;;;14.20;3.70;;;;;;;;;;5036570;28;20481;-65
2023/01/10 13:26:03;;;;;;;13.87;4.60;;;;;;;;;;5035419;28;20454;-65
2023/01/10 13:28:31;;;;;;;19.98;5.00;;;;;;;;;;5036228;28;20430;-65
2023/01/10 13:30:59;;;;;;;22.30;5.47;;;;;;;;;;5036293;28;20557;-65
2023/01/10 13:33:28;;;;;;;22.00;5.73;;;;;;;;;;5036391;28;20453;-65
2023/01/10 13:35:56;;;;;;;15.00;4.30;;;;;;;;;;5036241;28;20445;-65
2023/01/10 13:38:27;;;;;;;11.80;4.47;;;;;;;;;;5036338;28;20442;-64
2023/01/10 13:40:58;;;;;;;23.55;4.88;;;;;;;;;;5035844;28;20458;-65
2023/01/10 13:43:33;;;;;;;19.30;5.10;;;;;;;;;;5035911;28;20211;-65
2023/01/10 13:46:18;;;;;;;25.85;6.68;;;;;;;;;;5036487;28;20544;-65
2023/01/10 13:49:07;;;;;;;16.42;5.72;;;;;;;;;;5035845;28;20206;-65
2023/01/10 13:51:35;;;;;;;16.50;4.40;;;;;;;;;;5035872;28;20282;-64
2023/01/10 13:54:02;;;;;;;31.70;6.90;;;;;;;;;;5034438;28;20482;-64
2023/01/10 13:56:31;;;;;;;14.93;5.15;;;;;;;;;;5035878;28;20298;-67
2023/01/10 14:04:30;;;;;;;19.40;4.60;;;;;;;;;;5035519;28;20502;-65
2023/01/10 14:06:59;;;;;;;18.50;5.20;;;;;;;;;;5035868;28;20958;-64
2023/01/10 14:09:32;;;;;;;16.10;5.23;;;;;;;;;;5035758;28;20538;-67
2023/01/10 14:12:00;;;;;;;16.63;4.20;;;;;;;;;;5035573;28;20453;-64
2023/01/10 14:14:30;;;;;;;17.20;4.50;;;;;;;;;;5035330;28;20888;-64
2023/01/10 14:16:58;;;;;;;17.57;5.80;;;;;;;;;;5036231;28;20438;-65
2023/01/10 14:19:28;;;;;;;22.10;5.10;;;;;;;;;;5055016;28;20453;-65
2023/01/10 14:21:56;;;;;;;15.10;4.40;;;;;;;;;;5044218;28;20802;-64
2023/01/10 14:24:26;;;;;;;8.73;4.30;;;;;;;;;;5036224;28;20538;-64
2023/01/10 14:26:54;;;;;;;18.17;4.30;;;;;;;;;;5034905;28;20429;-64
2023/01/10 14:29:22;;;;;;;15.53;4.73;;;;;;;;;;5034765;28;20449;-66
2023/01/10 14:31:53;;;;;;;18.70;5.97;;;;;;;;;;5034580;28;20450;-66
2023/01/10 14:34:22;;;;;;;12.00;3.77;;;;;;;;;;5034745;28;20943;-67
2023/01/10 14:36:50;;;;;;;13.23;4.20;;;;;;;;;;5034773;28;20446;-64
2023/01/10 14:39:17;;;;;;;22.00;6.20;;;;;;;;;;5034803;28;20541;-66
2023/01/10 14:41:46;;;;;;;15.10;4.33;;;;;;;;;;5034720;28;20195;-69
2023/01/10 14:44:16;;;;;;;13.63;4.40;;;;;;;;;;5034644;28;21072;-68
2023/01/10 14:46:46;;;;;;;20.48;4.72;;;;;;;;;;5034393;28;20275;-67
2023/01/10 14:49:23;;;;;;;18.15;5.05;;;;;;;;;;5034259;28;20278;-68
2023/01/10 14:51:50;;;;;;;8.25;4.50;;;;;;;;;;5034384;28;20225;-67
2023/01/10 14:54:18;;;;;;;18.55;5.93;;;;;;;;;;5034631;28;20207;-67
2023/01/10 14:56:46;;;;;;;13.98;4.30;;;;;;;;;;5034466;28;20203;-67